createdAt,value
2022-10-09T00:01:29.430Z,100.00
2022-10-09T00:03:56.973Z,100.00
2022-10-09T00:06:27.203Z,100.00
2022-10-09T00:08:53.679Z,100.00
2022-10-09T00:11:23.684Z,100.00
2022-10-09T00:13:51.396Z,100.00
2022-10-09T00:16:19.125Z,100.00
2022-10-09T00:18:46.783Z,100.00
2022-10-09T00:21:27.654Z,100.00
2022-10-09T00:23:56.838Z,100.00
2022-10-09T00:26:24.526Z,100.00
2022-10-09T00:28:51.063Z,100.00
2022-10-09T00:31:18.295Z,100.00
2022-10-09T00:33:45.230Z,100.00
2022-10-09T00:36:14.821Z,100.00
2022-10-09T00:38:41.282Z,100.00
2022-10-09T00:41:08.694Z,100.00
2022-10-09T00:43:41.289Z,100.00
2022-10-09T00:46:16.806Z,100.00
2022-10-09T00:48:43.540Z,100.00
2022-10-09T00:51:10.127Z,100.00
2022-10-09T00:53:36.604Z,100.00
2022-10-09T00:56:03.137Z,100.00
2022-10-09T00:58:29.738Z,100.00
2022-10-09T01:00:56.202Z,100.00
2022-10-09T01:03:22.633Z,100.00
2022-10-09T01:05:51.738Z,100.00
2022-10-09T01:08:23.632Z,100.00
2022-10-09T01:11:02.064Z,100.00
2022-10-09T01:13:36.042Z,100.00
2022-10-09T01:16:11.786Z,100.00
2022-10-09T01:18:46.942Z,100.00
2022-10-09T01:21:37.257Z,100.00
2022-10-09T01:24:10.999Z,100.00
2022-10-09T01:26:56.189Z,100.00
2022-10-09T01:29:26.921Z,100.00
2022-10-09T01:31:54.819Z,100.00
2022-10-09T01:34:23.198Z,100.00
2022-10-09T01:36:51.771Z,100.00
2022-10-09T01:39:23.023Z,100.00
2022-10-09T01:41:52.082Z,100.00
2022-10-09T01:44:29.902Z,100.00
2022-10-09T01:46:57.273Z,100.00
2022-10-09T01:49:29.544Z,100.00
2022-10-09T01:52:14.214Z,100.00
2022-10-09T01:54:52.893Z,100.00
2022-10-09T01:57:37.073Z,100.00
2022-10-09T02:00:08.425Z,100.00
2022-10-09T02:02:36.429Z,100.00
2022-10-09T02:05:03.367Z,100.00
2022-10-09T02:07:32.207Z,100.00
2022-10-09T02:10:01.757Z,100.00
2022-10-09T02:12:31.670Z,100.00
2022-10-09T02:14:58.235Z,100.00
2022-10-09T02:17:29.381Z,100.00
2022-10-09T02:20:03.306Z,100.00
2022-10-09T02:22:31.474Z,100.00
2022-10-09T02:25:01.436Z,100.00
2022-10-09T02:27:28.556Z,100.00
2022-10-09T02:29:55.236Z,100.00
2022-10-09T02:32:21.898Z,100.00
2022-10-09T02:34:48.334Z,100.00
2022-10-09T02:37:14.975Z,100.00
2022-10-09T02:39:43.095Z,100.00
2022-10-09T02:42:09.625Z,100.00
2022-10-09T02:44:36.361Z,100.00
2022-10-09T02:47:03.093Z,100.00
2022-10-09T02:49:29.490Z,100.00
2022-10-09T02:51:55.903Z,100.00
2022-10-09T02:54:22.389Z,100.00
2022-10-09T02:56:48.819Z,100.00
2022-10-09T02:59:15.251Z,100.00
2022-10-09T03:01:41.755Z,100.00
2022-10-09T03:04:08.313Z,100.00
2022-10-09T03:06:35.006Z,100.00
2022-10-09T03:09:01.807Z,100.00
2022-10-09T03:11:28.260Z,100.00
2022-10-09T03:13:54.688Z,100.00
2022-10-09T03:16:23.401Z,100.00
2022-10-09T03:18:51.436Z,100.00
2022-10-09T03:21:24.148Z,100.00
2022-10-09T03:23:52.279Z,100.00
2022-10-09T03:26:21.459Z,100.00
2022-10-09T03:28:50.327Z,100.00
2022-10-09T03:31:46.481Z,100.00
2022-10-09T03:34:05.394Z,100.00
2022-10-09T03:36:31.804Z,100.00
2022-10-09T03:38:58.183Z,100.00
2022-10-09T03:41:24.586Z,100.00
2022-10-09T03:43:51.056Z,100.00
2022-10-09T03:46:17.519Z,100.00
2022-10-09T03:48:43.998Z,100.00
2022-10-09T03:51:10.388Z,100.00
2022-10-09T03:53:36.968Z,100.00
2022-10-09T03:56:03.523Z,100.00
2022-10-09T03:58:29.957Z,100.00
2022-10-09T04:00:56.490Z,100.00
2022-10-09T04:03:23.076Z,100.00
2022-10-09T04:05:49.583Z,100.00
2022-10-09T04:08:16.244Z,100.00
2022-10-09T04:10:42.680Z,100.00
2022-10-09T04:13:09.073Z,100.00
2022-10-09T04:15:36.638Z,100.00
2022-10-09T04:18:03.846Z,100.00
2022-10-09T04:20:30.306Z,100.00
2022-10-09T04:22:56.704Z,100.00
2022-10-09T04:25:23.177Z,100.00
2022-10-09T04:27:49.674Z,100.00
2022-10-09T04:30:16.225Z,100.00
2022-10-09T04:32:42.639Z,100.00
2022-10-09T04:35:09.153Z,100.00
2022-10-09T04:37:36.659Z,100.00
2022-10-09T04:40:03.700Z,100.00
2022-10-09T04:42:30.352Z,100.00
2022-10-09T04:44:56.787Z,100.00
2022-10-09T04:47:23.212Z,100.00
2022-10-09T04:49:49.932Z,100.00
2022-10-09T04:52:16.326Z,100.00
2022-10-09T04:54:42.833Z,100.00
2022-10-09T04:57:09.342Z,100.00
2022-10-09T04:59:35.782Z,100.00
2022-10-09T05:02:02.281Z,100.00
2022-10-09T05:04:28.884Z,100.00
2022-10-09T05:06:55.285Z,100.00
2022-10-09T05:09:21.682Z,100.00
2022-10-09T05:11:48.081Z,100.00
2022-10-09T05:14:14.594Z,100.00
2022-10-09T05:17:08.413Z,100.00
2022-10-09T05:19:27.534Z,100.00
2022-10-09T05:21:54.301Z,100.00
2022-10-09T05:24:21.117Z,100.00
2022-10-09T05:26:47.502Z,100.00
2022-10-09T05:29:13.964Z,100.00
2022-10-09T05:31:40.499Z,100.00
2022-10-09T05:34:06.981Z,100.00
2022-10-09T05:36:33.363Z,100.00
2022-10-09T05:39:01.172Z,100.00
2022-10-09T05:41:31.173Z,100.00
2022-10-09T05:44:01.769Z,100.00
2022-10-09T05:46:29.763Z,100.00
2022-10-09T05:48:58.654Z,100.00
2022-10-09T05:51:30.483Z,100.00
2022-10-09T05:53:57.837Z,100.00
2022-10-09T05:56:27.493Z,100.00
2022-10-09T05:58:59.269Z,100.00
2022-10-09T06:01:28.314Z,100.00
2022-10-09T06:03:57.048Z,100.00
2022-10-09T06:06:26.860Z,100.00
2022-10-09T06:08:54.027Z,100.00
2022-10-09T06:11:28.310Z,100.00
2022-10-09T06:13:56.118Z,100.00
2022-10-09T06:16:25.571Z,100.00
2022-10-09T06:18:53.180Z,100.00
2022-10-09T06:21:20.218Z,100.00
2022-10-09T06:23:52.029Z,100.00
2022-10-09T06:26:19.301Z,100.00
2022-10-09T06:28:46.050Z,100.00
2022-10-09T06:31:14.755Z,100.00
2022-10-09T06:33:43.093Z,100.00
2022-10-09T06:36:12.899Z,100.00
2022-10-09T06:38:39.959Z,100.00
2022-10-09T06:41:08.708Z,100.00
2022-10-09T06:43:35.407Z,100.00
2022-10-09T06:46:04.756Z,100.00
2022-10-09T06:48:32.584Z,100.00
2022-10-09T06:51:06.338Z,100.00
2022-10-09T06:53:37.826Z,100.00
2022-10-09T06:56:04.830Z,100.00
2022-10-09T06:58:32.020Z,100.00
2022-10-09T07:01:13.894Z,100.00
2022-10-09T07:03:42.735Z,100.00
2022-10-09T07:06:21.084Z,100.00
2022-10-09T07:08:50.200Z,100.00
2022-10-09T07:11:20.977Z,100.00
2022-10-09T07:13:48.859Z,100.00
2022-10-09T07:16:19.664Z,100.00
2022-10-09T07:18:46.163Z,100.00
2022-10-09T07:21:12.588Z,100.00
2022-10-09T07:23:39.039Z,100.00
2022-10-09T07:26:17.364Z,100.00
2022-10-09T07:28:44.697Z,100.00
2022-10-09T07:31:11.738Z,100.00
2022-10-09T07:33:38.747Z,100.00
2022-10-09T07:36:06.496Z,100.00
2022-10-09T07:38:33.071Z,100.00
2022-10-09T07:41:01.726Z,100.00
2022-10-09T07:43:28.247Z,100.00
2022-10-09T07:45:58.734Z,100.00
2022-10-09T07:48:25.294Z,100.00
2022-10-09T07:50:51.707Z,100.00
2022-10-09T07:53:18.221Z,100.00
2022-10-09T07:55:48.867Z,100.00
2022-10-09T07:58:16.640Z,100.00
2022-10-09T08:00:44.331Z,100.00
2022-10-09T08:03:11.142Z,100.00
2022-10-09T08:05:37.583Z,100.00
2022-10-09T08:08:04.097Z,100.00
2022-10-09T08:10:31.220Z,100.00
2022-10-09T08:12:57.677Z,100.00
2022-10-09T08:15:24.388Z,100.00
2022-10-09T08:17:54.771Z,100.00
2022-10-09T08:20:21.658Z,100.00
2022-10-09T08:22:48.483Z,100.00
2022-10-09T08:25:15.109Z,100.00
2022-10-09T08:27:41.524Z,100.00
2022-10-09T08:30:08.585Z,100.00
2022-10-09T08:32:35.007Z,100.00
2022-10-09T08:35:01.583Z,100.00
2022-10-09T08:37:27.986Z,100.00
2022-10-09T08:39:54.402Z,100.00
2022-10-09T08:42:32.327Z,100.00
2022-10-09T08:44:58.825Z,100.00
2022-10-09T08:47:28.325Z,100.00
2022-10-09T08:50:10.795Z,100.00
2022-10-09T08:53:02.322Z,100.00
2022-10-09T08:55:33.015Z,100.00
2022-10-09T08:58:05.133Z,100.00
2022-10-09T09:00:45.960Z,100.00
2022-10-09T09:03:44.795Z,100.00
2022-10-09T09:06:39.286Z,100.00
2022-10-09T09:09:40.343Z,100.00
2022-10-09T09:12:21.932Z,100.00
2022-10-09T09:15:25.621Z,100.00
2022-10-09T09:18:30.289Z,100.00
2022-10-09T09:21:10.614Z,100.00
2022-10-09T09:23:42.459Z,100.00
2022-10-09T09:26:21.595Z,100.00
2022-10-09T09:28:52.895Z,100.00
2022-10-09T09:31:30.284Z,100.00
2022-10-09T09:34:14.691Z,100.00
2022-10-09T09:36:54.065Z,100.00
2022-10-09T09:40:08.300Z,100.00
2022-10-09T09:42:10.944Z,96.91
2022-10-09T09:44:42.897Z,89.31
2022-10-09T09:47:15.955Z,91.38
2022-10-09T09:49:57.767Z,87.75
2022-10-09T09:52:28.356Z,90.54
2022-10-09T09:54:57.335Z,89.32
2022-10-09T09:57:37.264Z,86.07
2022-10-09T10:00:15.994Z,84.84
2022-10-09T10:02:42.566Z,81.50
2022-10-09T10:05:26.222Z,81.57
2022-10-09T10:07:53.274Z,80.38
2022-10-09T10:10:27.361Z,77.80
2022-10-09T10:13:00.200Z,78.62
2022-10-09T10:15:27.994Z,73.45
2022-10-09T10:17:57.301Z,78.55
2022-10-09T10:20:23.958Z,76.17
2022-10-09T10:22:53.068Z,74.07
2022-10-09T10:25:23.440Z,74.86
2022-10-09T10:27:55.445Z,75.40
2022-10-09T10:30:21.916Z,72.30
2022-10-09T10:33:17.626Z,72.37
2022-10-09T10:35:45.624Z,71.21
2022-10-09T10:38:39.437Z,66.86
2022-10-09T10:41:12.020Z,69.84
2022-10-09T10:43:43.595Z,68.37
2022-10-09T10:46:17.904Z,67.09
2022-10-09T10:48:47.240Z,61.04
2022-10-09T10:51:13.646Z,63.84
2022-10-09T10:53:58.319Z,63.49
2022-10-09T10:56:48.469Z,59.08
2022-10-09T10:59:46.013Z,55.72
2022-10-09T11:02:18.187Z,57.77
2022-10-09T11:05:22.997Z,53.70
2022-10-09T11:08:08.752Z,53.57
2022-10-09T11:10:55.569Z,55.85
2022-10-09T11:13:34.875Z,52.50
2022-10-09T11:16:21.992Z,53.20
2022-10-09T11:18:57.597Z,51.50
2022-10-09T11:21:42.835Z,51.47
2022-10-09T11:24:30.992Z,50.08
2022-10-09T11:27:17.497Z,46.69
2022-10-09T11:29:51.307Z,46.30
2022-10-09T11:32:28.511Z,44.83
2022-10-09T11:34:59.512Z,43.78
2022-10-09T11:37:30.917Z,41.67
2022-10-09T11:39:57.351Z,41.36
2022-10-09T11:42:26.280Z,42.75
2022-10-09T11:45:14.617Z,44.07
2022-10-09T11:48:02.901Z,43.23
2022-10-09T11:50:51.304Z,39.32
2022-10-09T11:53:39.843Z,40.67
2022-10-09T11:56:21.356Z,39.48
2022-10-09T11:59:07.529Z,39.34
2022-10-09T12:01:39.746Z,40.09
2022-10-09T12:04:37.363Z,38.32
2022-10-09T12:07:12.500Z,38.35
2022-10-09T12:09:44.541Z,36.58
2022-10-09T12:12:16.916Z,37.51
2022-10-09T12:14:46.756Z,38.63
2022-10-09T12:17:38.400Z,36.76
2022-10-09T12:20:18.262Z,35.69
2022-10-09T12:23:07.382Z,35.52
2022-10-09T12:25:45.622Z,34.80
2022-10-09T12:28:30.751Z,33.49
2022-10-09T12:31:01.053Z,35.27
2022-10-09T12:33:39.390Z,32.23
2022-10-09T12:36:22.186Z,32.63
2022-10-09T12:38:48.654Z,32.58
2022-10-09T12:41:21.875Z,32.10
2022-10-09T12:43:51.136Z,30.84
2022-10-09T12:46:39.165Z,27.81
2022-10-09T12:49:18.875Z,28.09
2022-10-09T12:51:53.841Z,28.52
2022-10-09T12:54:24.969Z,28.76
2022-10-09T12:56:53.372Z,27.37
2022-10-09T12:59:20.688Z,27.90
2022-10-09T13:01:48.780Z,28.77
2022-10-09T13:04:33.118Z,28.39
2022-10-09T13:07:05.647Z,28.66
2022-10-09T13:09:38.298Z,28.45
2022-10-09T13:12:09.882Z,27.63
2022-10-09T13:14:42.920Z,27.77
2022-10-09T13:17:33.491Z,26.75
2022-10-09T13:20:21.325Z,26.35
2022-10-09T13:22:55.375Z,26.16
2022-10-09T13:25:23.175Z,26.72
2022-10-09T13:27:49.745Z,26.15
2022-10-09T13:30:16.531Z,25.57
2022-10-09T13:32:42.961Z,25.86
2022-10-09T13:35:09.496Z,24.87
2022-10-09T13:37:35.950Z,24.98
2022-10-09T13:40:02.606Z,24.43
2022-10-09T13:42:39.468Z,23.77
2022-10-09T13:45:06.462Z,24.67
2022-10-09T13:47:33.182Z,25.21
2022-10-09T13:49:59.639Z,24.85
2022-10-09T13:52:26.164Z,24.08
2022-10-09T13:54:52.617Z,24.11
2022-10-09T13:57:19.175Z,24.49
2022-10-09T13:59:45.665Z,24.14
2022-10-09T14:02:12.586Z,24.68
2022-10-09T14:04:39.318Z,24.51
2022-10-09T14:07:05.739Z,24.18
2022-10-09T14:09:32.180Z,23.70
2022-10-09T14:11:58.855Z,23.95
2022-10-09T14:14:25.271Z,23.91
2022-10-09T14:16:51.818Z,23.94
2022-10-09T14:19:18.399Z,24.58
2022-10-09T14:21:46.719Z,24.53
2022-10-09T14:24:14.380Z,26.03
2022-10-09T14:26:41.255Z,27.17
2022-10-09T14:29:07.781Z,27.71
2022-10-09T14:31:34.270Z,27.52
2022-10-09T14:34:00.803Z,27.76
2022-10-09T14:36:28.118Z,27.50
2022-10-09T14:38:55.300Z,28.71
2022-10-09T14:41:22.481Z,29.01
2022-10-09T14:43:56.080Z,29.15
2022-10-09T14:46:23.074Z,29.68
2022-10-09T14:48:50.017Z,29.72
2022-10-09T14:51:18.979Z,29.46
2022-10-09T14:53:46.303Z,29.89
2022-10-09T14:56:21.060Z,29.56
2022-10-09T14:58:48.183Z,29.86
2022-10-09T15:01:18.133Z,31.02
2022-10-09T15:03:46.034Z,31.20
2022-10-09T15:06:13.036Z,31.65
2022-10-09T15:08:42.118Z,31.25
2022-10-09T15:11:10.226Z,31.87
2022-10-09T15:13:37.051Z,32.31
2022-10-09T15:16:15.131Z,31.19
2022-10-09T15:18:41.896Z,31.36
2022-10-09T15:21:20.291Z,31.79
2022-10-09T15:23:47.295Z,32.16
2022-10-09T15:26:14.155Z,32.10
2022-10-09T15:28:42.351Z,32.39
2022-10-09T15:31:36.701Z,32.10
2022-10-09T15:34:04.748Z,32.35
2022-10-09T15:36:34.386Z,32.88
2022-10-09T15:39:05.478Z,32.99
2022-10-09T15:41:34.539Z,33.81
2022-10-09T15:44:04.122Z,33.86
2022-10-09T15:46:31.345Z,33.96
2022-10-09T15:48:58.275Z,34.45
2022-10-09T15:51:25.558Z,34.64
2022-10-09T15:53:52.592Z,35.18
2022-10-09T15:56:24.656Z,35.29
2022-10-09T15:58:52.895Z,35.29
2022-10-09T16:01:20.244Z,35.98
2022-10-09T16:03:46.764Z,36.02
2022-10-09T16:06:20.990Z,36.79
2022-10-09T16:08:48.002Z,36.78
2022-10-09T16:11:19.155Z,37.27
2022-10-09T16:13:48.555Z,37.44
2022-10-09T16:16:20.852Z,37.71
2022-10-09T16:18:47.604Z,38.51
2022-10-09T16:21:19.876Z,38.11
2022-10-09T16:23:46.861Z,38.75
2022-10-09T16:26:16.824Z,38.58
2022-10-09T16:28:44.112Z,38.70
2022-10-09T16:31:21.997Z,39.77
2022-10-09T16:33:48.609Z,40.15
2022-10-09T16:36:15.395Z,41.28
2022-10-09T16:38:42.193Z,42.82
2022-10-09T16:41:11.832Z,43.31
2022-10-09T16:43:39.432Z,45.21
2022-10-09T16:46:16.950Z,47.83
2022-10-09T16:48:43.461Z,47.62
2022-10-09T16:51:11.980Z,51.65
2022-10-09T16:53:38.488Z,52.44
2022-10-09T16:56:12.325Z,56.68
2022-10-09T16:58:40.035Z,57.76
2022-10-09T17:01:09.930Z,56.72
2022-10-09T17:03:40.177Z,57.94
2022-10-09T17:06:12.724Z,56.86
2022-10-09T17:08:39.264Z,59.86
2022-10-09T17:11:10.430Z,59.74
2022-10-09T17:13:37.528Z,61.33
2022-10-09T17:16:08.612Z,61.66
2022-10-09T17:18:36.546Z,61.67
2022-10-09T17:21:08.054Z,62.00
2022-10-09T17:23:36.046Z,61.85
2022-10-09T17:26:16.947Z,62.77
2022-10-09T17:28:44.269Z,63.04
2022-10-09T17:31:14.266Z,64.22
2022-10-09T17:33:42.893Z,66.75
2022-10-09T17:36:10.222Z,67.65
2022-10-09T17:38:37.300Z,68.70
2022-10-09T17:41:08.057Z,71.14
2022-10-09T17:43:34.699Z,72.47
2022-10-09T17:46:01.587Z,73.73
2022-10-09T17:48:29.118Z,71.21
2022-10-09T17:50:57.789Z,75.94
2022-10-09T17:53:25.307Z,75.21
2022-10-09T17:55:53.578Z,77.91
2022-10-09T17:58:21.352Z,76.42
2022-10-09T18:00:48.475Z,76.58
2022-10-09T18:03:16.255Z,75.82
2022-10-09T18:05:45.435Z,78.40
2022-10-09T18:08:12.975Z,78.03
2022-10-09T18:10:39.564Z,75.75
2022-10-09T18:13:09.886Z,79.68
2022-10-09T18:15:37.716Z,77.38
2022-10-09T18:18:04.780Z,80.55
2022-10-09T18:20:33.196Z,79.99
2022-10-09T18:22:59.646Z,79.62
2022-10-09T18:25:26.161Z,79.07
2022-10-09T18:27:52.881Z,78.86
2022-10-09T18:30:20.639Z,77.93
2022-10-09T18:32:48.374Z,78.85
2022-10-09T18:35:15.444Z,78.48
2022-10-09T18:37:41.900Z,79.82
2022-10-09T18:40:09.015Z,79.78
2022-10-09T18:42:35.928Z,80.96
2022-10-09T18:45:03.135Z,79.32
2022-10-09T18:47:33.349Z,79.93
2022-10-09T18:50:02.683Z,81.57
2022-10-09T18:52:30.158Z,82.51
2022-10-09T18:54:58.399Z,81.93
2022-10-09T18:57:26.404Z,82.34
2022-10-09T18:59:54.337Z,84.15
2022-10-09T19:02:25.966Z,83.13
2022-10-09T19:04:56.386Z,84.87
2022-10-09T19:07:22.825Z,86.30
2022-10-09T19:09:53.569Z,86.35
2022-10-09T19:12:21.415Z,86.18
2022-10-09T19:14:47.890Z,87.27
2022-10-09T19:17:14.446Z,87.91
2022-10-09T19:19:41.012Z,89.52
2022-10-09T19:22:10.607Z,87.08
2022-10-09T19:24:39.312Z,89.61
2022-10-09T19:27:05.739Z,89.23
2022-10-09T19:29:32.396Z,90.70
2022-10-09T19:31:58.855Z,91.58
2022-10-09T19:34:25.325Z,92.01
2022-10-09T19:36:51.877Z,91.47
2022-10-09T19:39:19.416Z,92.62
2022-10-09T19:41:48.596Z,93.21
2022-10-09T19:44:15.214Z,95.49
2022-10-09T19:46:41.726Z,96.59
2022-10-09T19:49:09.189Z,94.32
2022-10-09T19:51:36.629Z,97.34
2022-10-09T19:54:05.218Z,96.80
2022-10-09T19:56:33.981Z,98.59
2022-10-09T19:59:02.534Z,97.83
2022-10-09T20:01:30.075Z,96.69
2022-10-09T20:03:58.443Z,98.60
2022-10-09T20:06:25.611Z,99.87
2022-10-09T20:08:52.177Z,98.98
2022-10-09T20:11:20.433Z,98.93
2022-10-09T20:13:50.957Z,100.00
2022-10-09T20:16:19.998Z,100.00
2022-10-09T20:18:46.442Z,100.00
2022-10-09T20:21:15.700Z,100.00
2022-10-09T20:23:44.163Z,100.00
2022-10-09T20:26:16.468Z,100.00
2022-10-09T20:28:43.961Z,100.00
2022-10-09T20:31:17.939Z,100.00
2022-10-09T20:33:45.907Z,100.00
2022-10-09T20:36:22.803Z,100.00
2022-10-09T20:38:49.601Z,100.00
2022-10-09T20:41:16.205Z,100.00
2022-10-09T20:43:42.667Z,100.00
2022-10-09T20:46:14.144Z,100.00
2022-10-09T20:48:44.473Z,100.00
2022-10-09T20:51:10.962Z,100.00
2022-10-09T20:53:37.483Z,100.00
2022-10-09T20:56:06.662Z,100.00
2022-10-09T20:58:34.635Z,100.00
2022-10-09T21:01:05.889Z,100.00
2022-10-09T21:03:33.032Z,100.00
2022-10-09T21:06:03.155Z,100.00
2022-10-09T21:08:29.827Z,100.00
2022-10-09T21:10:56.333Z,100.00
2022-10-09T21:13:22.818Z,100.00
2022-10-09T21:15:50.195Z,100.00
2022-10-09T21:18:18.714Z,100.00
2022-10-09T21:20:47.115Z,100.00
2022-10-09T21:23:15.505Z,100.00
2022-10-09T21:25:49.747Z,100.00
2022-10-09T21:28:17.824Z,100.00
2022-10-09T21:30:44.496Z,100.00
2022-10-09T21:33:11.027Z,100.00
2022-10-09T21:35:42.839Z,100.00
2022-10-09T21:38:12.995Z,100.00
2022-10-09T21:40:40.061Z,100.00
2022-10-09T21:43:06.980Z,100.00
2022-10-09T21:45:33.645Z,100.00
2022-10-09T21:48:00.186Z,100.00
2022-10-09T21:50:26.772Z,100.00
2022-10-09T21:52:53.431Z,100.00
2022-10-09T21:55:20.227Z,100.00
2022-10-09T21:57:46.787Z,100.00
2022-10-09T22:00:13.411Z,100.00
2022-10-09T22:02:39.861Z,100.00
2022-10-09T22:05:07.913Z,100.00
2022-10-09T22:07:34.569Z,100.00
2022-10-09T22:10:00.986Z,100.00
2022-10-09T22:12:27.524Z,100.00
2022-10-09T22:14:55.264Z,100.00
2022-10-09T22:17:21.723Z,100.00
2022-10-09T22:19:48.304Z,100.00
2022-10-09T22:22:14.761Z,100.00
2022-10-09T22:24:41.202Z,100.00
2022-10-09T22:27:07.649Z,100.00
2022-10-09T22:29:34.607Z,100.00
2022-10-09T22:32:01.011Z,100.00
2022-10-09T22:34:27.589Z,100.00
2022-10-09T22:36:54.001Z,100.00
2022-10-09T22:39:20.426Z,100.00
2022-10-09T22:41:46.828Z,100.00
2022-10-09T22:44:13.283Z,100.00
2022-10-09T22:46:41.696Z,100.00
2022-10-09T22:49:11.747Z,100.00
2022-10-09T22:51:38.178Z,100.00
2022-10-09T22:54:05.455Z,100.00
2022-10-09T22:56:39.022Z,100.00
2022-10-09T22:59:07.277Z,100.00
2022-10-09T23:01:35.560Z,100.00
2022-10-09T23:04:05.370Z,100.00
2022-10-09T23:06:31.791Z,100.00
2022-10-09T23:08:59.049Z,100.00
2022-10-09T23:11:26.387Z,100.00
2022-10-09T23:13:55.004Z,100.00
2022-10-09T23:16:21.998Z,100.00
2022-10-09T23:18:48.742Z,100.00
2022-10-09T23:21:17.585Z,100.00
2022-10-09T23:23:45.056Z,100.00
2022-10-09T23:26:15.171Z,100.00
2022-10-09T23:28:42.391Z,100.00
2022-10-09T23:31:10.258Z,100.00
2022-10-09T23:33:39.483Z,100.00
2022-10-09T23:36:07.167Z,100.00
2022-10-09T23:38:34.133Z,100.00
2022-10-09T23:41:07.093Z,100.00
2022-10-09T23:43:36.146Z,100.00
2022-10-09T23:46:04.626Z,100.00
2022-10-09T23:48:31.209Z,100.00
2022-10-09T23:50:57.916Z,100.00
2022-10-09T23:53:26.137Z,100.00
2022-10-09T23:55:53.876Z,100.00
2022-10-09T23:58:21.232Z,100.00
